sensor_id;sensor_type;location;lat;lon;timestamp;pressure;altitude;pressure_sealevel;temperature;humidity
21838;BME280;11081;45.946;6.140;2024-01-11T00:01:15;95596.25;;;2.42;90.22
21838;BME280;11081;45.946;6.140;2024-01-11T00:03:43;95600.44;;;2.43;89.69
21838;BME280;11081;45.946;6.140;2024-01-11T00:06:11;95598.84;;;2.42;89.53
21838;BME280;11081;45.946;6.140;2024-01-11T00:08:39;95599.00;;;2.33;89.84
21838;BME280;11081;45.946;6.140;2024-01-11T00:11:07;95602.97;;;2.19;90.61
21838;BME280;11081;45.946;6.140;2024-01-11T00:13:36;95600.25;;;2.21;90.87
21838;BME280;11081;45.946;6.140;2024-01-11T00:16:04;95599.78;;;2.25;90.65
21838;BME280;11081;45.946;6.140;2024-01-11T00:18:32;95601.53;;;2.25;90.47
21838;BME280;11081;45.946;6.140;2024-01-11T00:21:00;95606.66;;;2.08;90.52
21838;BME280;11081;45.946;6.140;2024-01-11T00:23:28;95592.16;;;2.07;90.81
21838;BME280;11081;45.946;6.140;2024-01-11T00:25:56;95592.03;;;2.09;91.00
21838;BME280;11081;45.946;6.140;2024-01-11T00:28:24;95590.06;;;1.95;90.82
21838;BME280;11081;45.946;6.140;2024-01-11T00:30:53;95594.91;;;2.06;90.90
21838;BME280;11081;45.946;6.140;2024-01-11T00:33:21;95596.88;;;2.12;90.58
21838;BME280;11081;45.946;6.140;2024-01-11T00:35:49;95593.00;;;2.16;90.65
21838;BME280;11081;45.946;6.140;2024-01-11T00:38:17;95592.03;;;2.25;90.37
21838;BME280;11081;45.946;6.140;2024-01-11T00:40:45;95595.25;;;2.11;89.28
21838;BME280;11081;45.946;6.140;2024-01-11T00:43:13;95591.50;;;2.05;90.78
21838;BME280;11081;45.946;6.140;2024-01-11T00:45:41;95603.31;;;2.16;90.94
21838;BME280;11081;45.946;6.140;2024-01-11T00:48:10;95598.16;;;2.16;90.32
21838;BME280;11081;45.946;6.140;2024-01-11T00:50:38;95594.94;;;2.14;90.56
21838;BME280;11081;45.946;6.140;2024-01-11T00:53:06;95597.84;;;2.19;90.47
21838;BME280;11081;45.946;6.140;2024-01-11T00:55:35;95587.22;;;2.22;90.16
21838;BME280;11081;45.946;6.140;2024-01-11T00:58:03;95591.06;;;2.18;90.32
21838;BME280;11081;45.946;6.140;2024-01-11T01:00:31;95596.22;;;2.18;90.56
21838;BME280;11081;45.946;6.140;2024-01-11T01:02:59;95593.66;;;2.26;90.28
21838;BME280;11081;45.946;6.140;2024-01-11T01:05:28;95591.41;;;2.23;90.03
21838;BME280;11081;45.946;6.140;2024-01-11T01:07:56;95597.50;;;2.22;90.56
21838;BME280;11081;45.946;6.140;2024-01-11T01:10:24;95601.53;;;2.17;90.83
21838;BME280;11081;45.946;6.140;2024-01-11T01:12:52;95602.34;;;2.17;90.88
21838;BME280;11081;45.946;6.140;2024-01-11T01:15:20;95595.75;;;2.14;91.03
21838;BME280;11081;45.946;6.140;2024-01-11T01:17:48;95600.25;;;2.12;90.93
21838;BME280;11081;45.946;6.140;2024-01-11T01:20:16;95591.06;;;2.18;91.29
21838;BME280;11081;45.946;6.140;2024-01-11T01:22:44;95599.75;;;2.17;91.48
21838;BME280;11081;45.946;6.140;2024-01-11T01:25:12;95593.66;;;2.10;91.29
21838;BME280;11081;45.946;6.140;2024-01-11T01:27:40;95594.94;;;2.14;91.50
21838;BME280;11081;45.946;6.140;2024-01-11T01:30:09;95592.38;;;2.14;91.16
21838;BME280;11081;45.946;6.140;2024-01-11T01:32:37;95597.19;;;2.09;91.56
21838;BME280;11081;45.946;6.140;2024-01-11T01:35:05;95598.41;;;1.97;91.60
21838;BME280;11081;45.946;6.140;2024-01-11T01:37:33;95603.56;;;1.97;92.29
21838;BME280;11081;45.946;6.140;2024-01-11T01:40:02;95600.00;;;1.90;92.22
21838;BME280;11081;45.946;6.140;2024-01-11T01:42:30;95603.25;;;2.00;91.86
21838;BME280;11081;45.946;6.140;2024-01-11T01:44:58;95589.09;;;2.04;91.76
21838;BME280;11081;45.946;6.140;2024-01-11T01:47:27;95603.25;;;2.00;92.24
21838;BME280;11081;45.946;6.140;2024-01-11T01:49:55;95594.88;;;1.98;91.18
21838;BME280;11081;45.946;6.140;2024-01-11T01:52:24;95606.13;;;1.89;91.56
21838;BME280;11081;45.946;6.140;2024-01-11T01:54:52;95606.72;;;1.82;92.21
21838;BME280;11081;45.946;6.140;2024-01-11T01:57:22;95608.34;;;1.83;92.32
21838;BME280;11081;45.946;6.140;2024-01-11T01:59:51;95613.97;;;1.87;92.37
21838;BME280;11081;45.946;6.140;2024-01-11T02:02:20;95614.19;;;1.94;91.64
21838;BME280;11081;45.946;6.140;2024-01-11T02:04:48;95616.09;;;1.92;91.93
21838;BME280;11081;45.946;6.140;2024-01-11T02:07:17;95617.72;;;1.93;91.70
21838;BME280;11081;45.946;6.140;2024-01-11T02:09:46;95617.97;;;1.73;92.57
21838;BME280;11081;45.946;6.140;2024-01-11T02:12:14;95623.72;;;1.67;93.73
21838;BME280;11081;45.946;6.140;2024-01-11T02:14:44;95620.56;;;1.81;93.05
21838;BME280;11081;45.946;6.140;2024-01-11T02:17:12;95622.16;;;1.82;92.94
21838;BME280;11081;45.946;6.140;2024-01-11T02:19:40;95625.75;;;1.90;92.56
21838;BME280;11081;45.946;6.140;2024-01-11T02:22:12;95627.03;;;1.94;92.29
21838;BME280;11081;45.946;6.140;2024-01-11T02:24:42;95637.97;;;1.96;91.86
21838;BME280;11081;45.946;6.140;2024-01-11T02:27:10;95633.16;;;2.01;91.63
21838;BME280;11081;45.946;6.140;2024-01-11T02:29:38;95637.03;;;2.05;91.73
21838;BME280;11081;45.946;6.140;2024-01-11T02:32:06;95634.78;;;2.02;91.38
21838;BME280;11081;45.946;6.140;2024-01-11T02:34:35;95635.09;;;2.07;91.06
21838;BME280;11081;45.946;6.140;2024-01-11T02:37:04;95644.13;;;2.03;91.67
21838;BME280;11081;45.946;6.140;2024-01-11T02:39:33;95640.25;;;2.07;91.33
21838;BME280;11081;45.946;6.140;2024-01-11T02:42:03;95633.16;;;1.93;91.89
21838;BME280;11081;45.946;6.140;2024-01-11T02:44:31;95632.53;;;1.99;92.35
21838;BME280;11081;45.946;6.140;2024-01-11T02:46:59;95627.50;;;1.89;92.64
21838;BME280;11081;45.946;6.140;2024-01-11T02:49:27;95632.22;;;2.02;92.38
21838;BME280;11081;45.946;6.140;2024-01-11T02:51:54;95629.69;;;2.10;91.98
21838;BME280;11081;45.946;6.140;2024-01-11T02:54:22;95635.63;;;2.10;91.86
21838;BME280;11081;45.946;6.140;2024-01-11T02:56:50;95636.44;;;2.11;92.21
21838;BME280;11081;45.946;6.140;2024-01-11T02:59:20;95637.56;;;2.17;91.72
21838;BME280;11081;45.946;6.140;2024-01-11T03:01:48;95633.53;;;2.14;91.14
21838;BME280;11081;45.946;6.140;2024-01-11T03:04:16;95627.09;;;2.10;91.33
21838;BME280;11081;45.946;6.140;2024-01-11T03:06:44;95624.22;;;2.13;91.37
21838;BME280;11081;45.946;6.140;2024-01-11T03:09:12;95624.53;;;2.10;91.71
21838;BME280;11081;45.946;6.140;2024-01-11T03:11:39;95622.28;;;2.15;92.10
21838;BME280;11081;45.946;6.140;2024-01-11T03:14:08;95617.63;;;2.19;91.90
21838;BME280;11081;45.946;6.140;2024-01-11T03:16:37;95616.19;;;2.24;91.24
21838;BME280;11081;45.946;6.140;2024-01-11T03:19:06;95614.56;;;2.23;91.14
21838;BME280;11081;45.946;6.140;2024-01-11T03:21:34;95612.31;;;2.12;90.86
21838;BME280;11081;45.946;6.140;2024-01-11T03:24:02;95617.56;;;2.02;91.63
21838;BME280;11081;45.946;6.140;2024-01-11T03:26:30;95618.69;;;2.00;91.61
21838;BME280;11081;45.946;6.140;2024-01-11T03:28:59;95621.56;;;1.89;92.24
21838;BME280;11081;45.946;6.140;2024-01-11T03:31:27;95613.84;;;1.89;92.65
21838;BME280;11081;45.946;6.140;2024-01-11T03:33:56;95609.28;;;1.82;92.57
21838;BME280;11081;45.946;6.140;2024-01-11T03:36:24;95605.75;;;1.75;92.91
21838;BME280;11081;45.946;6.140;2024-01-11T03:38:52;95607.03;;;1.79;92.82
21838;BME280;11081;45.946;6.140;2024-01-11T03:41:20;95606.41;;;1.86;92.92
21838;BME280;11081;45.946;6.140;2024-01-11T03:43:50;95602.22;;;1.76;92.50
21838;BME280;11081;45.946;6.140;2024-01-11T03:46:18;95595.13;;;1.78;92.51
21838;BME280;11081;45.946;6.140;2024-01-11T03:48:47;95600.53;;;1.59;93.38
21838;BME280;11081;45.946;6.140;2024-01-11T03:51:16;95597.00;;;1.60;93.08
21838;BME280;11081;45.946;6.140;2024-01-11T03:53:44;95595.03;;;1.54;93.70
21838;BME280;11081;45.946;6.140;2024-01-11T03:56:12;95591.84;;;1.60;93.92
21838;BME280;11081;45.946;6.140;2024-01-11T03:58:40;95602.84;;;1.70;92.92
21838;BME280;11081;45.946;6.140;2024-01-11T04:01:11;95597.38;;;1.73;92.61
21838;BME280;11081;45.946;6.140;2024-01-11T04:03:41;95595.44;;;1.75;92.16
21838;BME280;11081;45.946;6.140;2024-01-11T04:06:21;95589.59;;;1.65;92.89
21838;BME280;11081;45.946;6.140;2024-01-11T04:08:50;95595.44;;;1.75;91.99
21838;BME280;11081;45.946;6.140;2024-01-11T04:11:18;95598.19;;;1.74;91.74
21838;BME280;11081;45.946;6.140;2024-01-11T04:13:46;95587.72;;;1.67;92.06
21838;BME280;11081;45.946;6.140;2024-01-11T04:16:14;95592.19;;;1.65;92.52
21838;BME280;11081;45.946;6.140;2024-01-11T04:18:42;95592.53;;;1.70;92.01
21838;BME280;11081;45.946;6.140;2024-01-11T04:21:21;95587.94;;;1.48;93.19
21838;BME280;11081;45.946;6.140;2024-01-11T04:23:50;95588.31;;;1.61;93.17
21838;BME280;11081;45.946;6.140;2024-01-11T04:26:18;95588.31;;;1.61;92.86
21838;BME280;11081;45.946;6.140;2024-01-11T04:28:46;95582.22;;;1.62;93.09
21838;BME280;11081;45.946;6.140;2024-01-11T04:31:14;95588.69;;;1.74;92.18
21838;BME280;11081;45.946;6.140;2024-01-11T04:33:44;95597.06;;;1.76;91.63
21838;BME280;11081;45.946;6.140;2024-01-11T04:36:12;95584.66;;;1.72;91.49
21838;BME280;11081;45.946;6.140;2024-01-11T04:38:42;95580.03;;;1.75;91.79
21838;BME280;11081;45.946;6.140;2024-01-11T04:41:11;95591.13;;;1.76;91.85
21838;BME280;11081;45.946;6.140;2024-01-11T04:43:40;95594.34;;;1.78;91.69
21838;BME280;11081;45.946;6.140;2024-01-11T04:46:15;95601.09;;;1.87;91.29
21838;BME280;11081;45.946;6.140;2024-01-11T04:48:44;95599.00;;;1.82;91.24
21838;BME280;11081;45.946;6.140;2024-01-11T04:51:13;95589.44;;;1.59;91.93
21838;BME280;11081;45.946;6.140;2024-01-11T04:53:43;95582.84;;;1.64;92.20
21838;BME280;11081;45.946;6.140;2024-01-11T04:56:14;95597.03;;;1.68;91.84
21838;BME280;11081;45.946;6.140;2024-01-11T04:58:44;95591.13;;;1.76;91.96
21838;BME280;11081;45.946;6.140;2024-01-11T05:01:13;95591.59;;;1.79;92.43
21838;BME280;11081;45.946;6.140;2024-01-11T05:03:42;95599.31;;;1.71;91.48
21838;BME280;11081;45.946;6.140;2024-01-11T05:06:15;95592.19;;;1.65;91.96
21838;BME280;11081;45.946;6.140;2024-01-11T05:08:47;95603.72;;;1.53;92.33
21838;BME280;11081;45.946;6.140;2024-01-11T05:11:16;95595.13;;;1.70;92.53
21838;BME280;11081;45.946;6.140;2024-01-11T05:13:45;95591.59;;;1.79;91.46
21838;BME280;11081;45.946;6.140;2024-01-11T05:16:22;95598.53;;;1.87;90.95
21838;BME280;11081;45.946;6.140;2024-01-11T05:18:51;95596.44;;;1.82;90.68
21838;BME280;11081;45.946;6.140;2024-01-11T05:21:19;95597.06;;;1.76;92.01
21838;BME280;11081;45.946;6.140;2024-01-11T05:23:49;95594.50;;;1.84;91.18
21838;BME280;11081;45.946;6.140;2024-01-11T05:26:18;95597.25;;;1.83;91.05
21838;BME280;11081;45.946;6.140;2024-01-11T05:28:46;95591.28;;;1.82;91.29
21838;BME280;11081;45.946;6.140;2024-01-11T05:31:15;95596.13;;;1.86;91.03
21838;BME280;11081;45.946;6.140;2024-01-11T05:33:45;95599.84;;;1.91;91.72
21838;BME280;11081;45.946;6.140;2024-01-11T05:36:14;95606.94;;;1.97;91.00
21838;BME280;11081;45.946;6.140;2024-01-11T05:38:42;95606.16;;;2.05;90.20
21838;BME280;11081;45.946;6.140;2024-01-11T05:41:11;95601.97;;;1.96;90.21
21838;BME280;11081;45.946;6.140;2024-01-11T05:43:39;95600.53;;;2.01;90.27
21838;BME280;11081;45.946;6.140;2024-01-11T05:46:07;95606.97;;;2.05;90.49
21838;BME280;11081;45.946;6.140;2024-01-11T05:48:35;95610.06;;;2.09;89.68
21838;BME280;11081;45.946;6.140;2024-01-11T05:51:04;95605.13;;;1.81;90.41
21838;BME280;11081;45.946;6.140;2024-01-11T05:53:31;95608.66;;;1.80;90.66
21838;BME280;11081;45.946;6.140;2024-01-11T05:56:08;95604.78;;;1.76;91.61
21838;BME280;11081;45.946;6.140;2024-01-11T05:58:39;95615.41;;;1.81;91.16
21838;BME280;11081;45.946;6.140;2024-01-11T06:01:07;95610.59;;;1.87;91.39
21838;BME280;11081;45.946;6.140;2024-01-11T06:03:35;95611.56;;;1.86;90.81
21838;BME280;11081;45.946;6.140;2024-01-11T06:06:04;95609.91;;;1.68;91.46
21838;BME280;11081;45.946;6.140;2024-01-11T06:08:33;95613.78;;;1.72;91.22
21838;BME280;11081;45.946;6.140;2024-01-11T06:11:01;95606.88;;;1.81;91.12
21838;BME280;11081;45.946;6.140;2024-01-11T06:13:31;95622.22;;;1.91;91.28
21838;BME280;11081;45.946;6.140;2024-01-11T06:16:00;95608.72;;;1.97;90.34
21838;BME280;11081;45.946;6.140;2024-01-11T06:18:28;95621.25;;;1.92;89.87
21838;BME280;11081;45.946;6.140;2024-01-11T06:20:57;95620.59;;;1.90;89.92
21838;BME280;11081;45.946;6.140;2024-01-11T06:23:25;95626.88;;;1.95;90.25
21838;BME280;11081;45.946;6.140;2024-01-11T06:25:53;95628.44;;;1.80;90.38
21838;BME280;11081;45.946;6.140;2024-01-11T06:28:21;95615.84;;;1.69;90.88
21838;BME280;11081;45.946;6.140;2024-01-11T06:30:49;95625.34;;;1.68;90.71
21838;BME280;11081;45.946;6.140;2024-01-11T06:33:18;95630.16;;;1.71;90.88
21838;BME280;11081;45.946;6.140;2024-01-11T06:35:47;95630.13;;;1.63;91.50
21838;BME280;11081;45.946;6.140;2024-01-11T06:38:15;95637.81;;;1.63;91.39
21838;BME280;11081;45.946;6.140;2024-01-11T06:40:43;95634.28;;;1.64;91.69
21838;BME280;11081;45.946;6.140;2024-01-11T06:43:11;95631.72;;;1.64;91.56
21838;BME280;11081;45.946;6.140;2024-01-11T06:45:39;95635.31;;;1.71;91.18
21838;BME280;11081;45.946;6.140;2024-01-11T06:48:07;95623.09;;;1.73;91.09
21838;BME280;11081;45.946;6.140;2024-01-11T06:50:37;95622.63;;;1.78;90.78
21838;BME280;11081;45.946;6.140;2024-01-11T06:53:04;95623.28;;;1.80;90.90
21838;BME280;11081;45.946;6.140;2024-01-11T06:55:32;95623.75;;;1.75;90.54
21838;BME280;11081;45.946;6.140;2024-01-11T06:58:00;95614.91;;;1.78;90.73
21838;BME280;11081;45.946;6.140;2024-01-11T07:00:29;95625.38;;;1.84;90.69
21838;BME280;11081;45.946;6.140;2024-01-11T07:02:57;95635.38;;;1.88;90.78
21838;BME280;11081;45.946;6.140;2024-01-11T07:05:25;95635.66;;;1.84;90.62
21838;BME280;11081;45.946;6.140;2024-01-11T07:07:54;95634.06;;;1.83;90.80
21838;BME280;11081;45.946;6.140;2024-01-11T07:10:22;95635.06;;;1.91;90.62
21838;BME280;11081;45.946;6.140;2024-01-11T07:12:50;95632.66;;;1.89;90.90
21838;BME280;11081;45.946;6.140;2024-01-11T07:15:18;95638.13;;;1.94;90.71
21838;BME280;11081;45.946;6.140;2024-01-11T07:17:48;95642.81;;;1.99;90.35
21838;BME280;11081;45.946;6.140;2024-01-11T07:20:17;95634.44;;;1.97;89.33
21838;BME280;11081;45.946;6.140;2024-01-11T07:22:45;95638.47;;;1.91;89.37
21838;BME280;11081;45.946;6.140;2024-01-11T07:25:15;95638.38;;;2.09;88.95
21838;BME280;11081;45.946;6.140;2024-01-11T07:27:43;95637.41;;;2.10;88.21
21838;BME280;11081;45.946;6.140;2024-01-11T07:30:12;95642.25;;;2.21;88.39
21838;BME280;11081;45.946;6.140;2024-01-11T07:32:40;95643.84;;;2.14;87.82
21838;BME280;11081;45.946;6.140;2024-01-11T07:35:08;95643.84;;;2.14;87.72
21838;BME280;11081;45.946;6.140;2024-01-11T07:37:42;95646.75;;;2.19;88.02
21838;BME280;11081;45.946;6.140;2024-01-11T07:40:10;95649.97;;;2.13;88.31
21838;BME280;11081;45.946;6.140;2024-01-11T07:42:40;95648.94;;;2.06;88.60
21838;BME280;11081;45.946;6.140;2024-01-11T07:45:09;95646.41;;;2.14;88.18
21838;BME280;11081;45.946;6.140;2024-01-11T07:47:38;95657.69;;;2.13;88.58
21838;BME280;11081;45.946;6.140;2024-01-11T07:50:07;95661.84;;;2.14;88.39
21838;BME280;11081;45.946;6.140;2024-01-11T07:52:36;95655.41;;;2.10;88.15
21838;BME280;11081;45.946;6.140;2024-01-11T07:55:04;95655.41;;;2.10;88.46
21838;BME280;11081;45.946;6.140;2024-01-11T07:57:34;95658.00;;;2.18;87.97
21838;BME280;11081;45.946;6.140;2024-01-11T08:00:05;95656.88;;;2.21;87.72
21838;BME280;11081;45.946;6.140;2024-01-11T08:02:39;95655.44;;;2.26;87.49
21838;BME280;11081;45.946;6.140;2024-01-11T08:05:08;95659.78;;;2.26;87.25
21838;BME280;11081;45.946;6.140;2024-01-11T08:07:36;95660.44;;;2.20;87.35
21838;BME280;11081;45.946;6.140;2024-01-11T08:10:05;95654.78;;;2.16;87.65
21838;BME280;11081;45.946;6.140;2024-01-11T08:12:33;95661.84;;;2.14;88.38
21838;BME280;11081;45.946;6.140;2024-01-11T08:15:01;95666.38;;;2.20;88.28
21838;BME280;11081;45.946;6.140;2024-01-11T08:17:31;95673.13;;;2.21;87.98
21838;BME280;11081;45.946;6.140;2024-01-11T08:19:59;95686.66;;;2.23;87.98
21838;BME280;11081;45.946;6.140;2024-01-11T08:22:27;95691.22;;;2.29;87.79
21838;BME280;11081;45.946;6.140;2024-01-11T08:25:00;95684.47;;;2.36;87.18
21838;BME280;11081;45.946;6.140;2024-01-11T08:27:28;95682.88;;;2.43;86.64
21838;BME280;11081;45.946;6.140;2024-01-11T08:29:56;95692.84;;;2.47;86.72
21838;BME280;11081;45.946;6.140;2024-01-11T08:32:24;95693.41;;;2.24;86.89
21838;BME280;11081;45.946;6.140;2024-01-11T08:34:59;95703.38;;;2.11;87.55
21838;BME280;11081;45.946;6.140;2024-01-11T08:37:27;95696.97;;;2.23;87.87
21838;BME280;11081;45.946;6.140;2024-01-11T08:39:55;95691.47;;;2.18;87.83
21838;BME280;11081;45.946;6.140;2024-01-11T08:42:23;95696.88;;;2.07;87.98
21838;BME280;11081;45.946;6.140;2024-01-11T08:44:51;95705.00;;;2.28;87.67
21838;BME280;11081;45.946;6.140;2024-01-11T08:47:19;95704.41;;;2.34;86.84
21838;BME280;11081;45.946;6.140;2024-01-11T08:49:47;95703.28;;;2.37;87.75
21838;BME280;11081;45.946;6.140;2024-01-11T08:52:17;95702.16;;;2.39;86.35
21838;BME280;11081;45.946;6.140;2024-01-11T08:54:45;95704.38;;;2.26;86.56
21838;BME280;11081;45.946;6.140;2024-01-11T08:57:13;95707.31;;;2.39;87.35
21838;BME280;11081;45.946;6.140;2024-01-11T08:59:41;95709.91;;;2.48;86.13
21838;BME280;11081;45.946;6.140;2024-01-11T09:02:09;95703.41;;;2.27;86.35
21838;BME280;11081;45.946;6.140;2024-01-11T09:04:45;95706.34;;;2.32;87.01
21838;BME280;11081;45.946;6.140;2024-01-11T09:07:14;95720.50;;;2.36;86.84
21838;BME280;11081;45.946;6.140;2024-01-11T09:09:44;95709.25;;;2.37;87.00
21838;BME280;11081;45.946;6.140;2024-01-11T09:12:22;95709.41;;;2.44;86.77
21838;BME280;11081;45.946;6.140;2024-01-11T09:14:50;95713.44;;;2.47;86.54
21838;BME280;11081;45.946;6.140;2024-01-11T09:17:18;95713.81;;;2.60;86.24
21838;BME280;11081;45.946;6.140;2024-01-11T09:19:46;95718.97;;;2.60;85.92
21838;BME280;11081;45.946;6.140;2024-01-11T09:22:14;95720.25;;;2.64;85.32
21838;BME280;11081;45.946;6.140;2024-01-11T09:24:43;95726.69;;;2.60;85.61
21838;BME280;11081;45.946;6.140;2024-01-11T09:27:11;95724.56;;;2.47;85.98
21838;BME280;11081;45.946;6.140;2024-01-11T09:29:42;95723.75;;;2.47;85.94
21838;BME280;11081;45.946;6.140;2024-01-11T09:32:10;95735.06;;;2.54;85.77
21838;BME280;11081;45.946;6.140;2024-01-11T09:34:39;95735.72;;;2.64;85.71
21838;BME280;11081;45.946;6.140;2024-01-11T09:37:07;95732.19;;;2.65;85.84
21838;BME280;11081;45.946;6.140;2024-01-11T09:39:35;95734.91;;;2.63;85.20
21838;BME280;11081;45.946;6.140;2024-01-11T09:42:08;95735.66;;;2.48;85.78
21838;BME280;11081;45.946;6.140;2024-01-11T09:44:37;95732.94;;;2.49;85.52
21838;BME280;11081;45.946;6.140;2024-01-11T09:47:08;95743.06;;;2.42;86.45
21838;BME280;11081;45.946;6.140;2024-01-11T09:49:43;95733.09;;;2.48;86.59
21838;BME280;11081;45.946;6.140;2024-01-11T09:52:12;95733.06;;;2.39;86.58
21838;BME280;11081;45.946;6.140;2024-01-11T09:54:41;95738.22;;;2.39;87.04
21838;BME280;11081;45.946;6.140;2024-01-11T09:57:11;95739.25;;;2.63;86.65
21838;BME280;11081;45.946;6.140;2024-01-11T09:59:39;95736.69;;;2.63;86.21
21838;BME280;11081;45.946;6.140;2024-01-11T10:02:10;95739.94;;;2.73;86.15
21838;BME280;11081;45.946;6.140;2024-01-11T10:04:42;95741.56;;;2.74;85.77
21838;BME280;11081;45.946;6.140;2024-01-11T10:07:10;95730.28;;;2.83;85.30
21838;BME280;11081;45.946;6.140;2024-01-11T10:09:38;95734.00;;;2.89;85.46
21838;BME280;11081;45.946;6.140;2024-01-11T10:12:08;95728.25;;;2.95;85.61
21838;BME280;11081;45.946;6.140;2024-01-11T10:14:37;95726.13;;;3.06;85.13
21838;BME280;11081;45.946;6.140;2024-01-11T10:17:06;95719.66;;;2.86;84.75
21838;BME280;11081;45.946;6.140;2024-01-11T10:19:35;95721.44;;;2.86;85.68
21838;BME280;11081;45.946;6.140;2024-01-11T10:22:03;95727.34;;;2.62;84.80
21838;BME280;11081;45.946;6.140;2024-01-11T10:24:33;95724.06;;;2.35;86.83
21838;BME280;11081;45.946;6.140;2024-01-11T10:27:02;95728.31;;;2.61;86.80
21838;BME280;11081;45.946;6.140;2024-01-11T10:29:31;95719.34;;;2.73;86.47
21838;BME280;11081;45.946;6.140;2024-01-11T10:32:00;95723.69;;;2.72;85.45
21838;BME280;11081;45.946;6.140;2024-01-11T10:34:29;95724.81;;;2.86;85.09
21838;BME280;11081;45.946;6.140;2024-01-11T10:36:57;95715.66;;;3.00;84.69
21838;BME280;11081;45.946;6.140;2024-01-11T10:39:25;95720.66;;;3.10;84.33
21838;BME280;11081;45.946;6.140;2024-01-11T10:42:03;95725.50;;;2.96;83.29
21838;BME280;11081;45.946;6.140;2024-01-11T10:44:34;95714.88;;;2.99;83.00
21838;BME280;11081;45.946;6.140;2024-01-11T10:47:05;95721.94;;;2.97;83.18
21838;BME280;11081;45.946;6.140;2024-01-11T10:49:39;95726.78;;;3.00;82.80
21838;BME280;11081;45.946;6.140;2024-01-11T10:52:12;95727.44;;;3.11;83.14
21838;BME280;11081;45.946;6.140;2024-01-11T10:54:41;95726.16;;;3.23;82.50
21838;BME280;11081;45.946;6.140;2024-01-11T10:57:12;95715.81;;;3.06;82.54
21838;BME280;11081;45.946;6.140;2024-01-11T10:59:40;95714.53;;;3.02;82.34
21838;BME280;11081;45.946;6.140;2024-01-11T11:02:12;95717.72;;;2.80;82.56
21838;BME280;11081;45.946;6.140;2024-01-11T11:04:42;95715.47;;;2.77;83.85
21838;BME280;11081;45.946;6.140;2024-01-11T11:07:11;95707.69;;;2.53;84.97
21838;BME280;11081;45.946;6.140;2024-01-11T11:09:41;95713.19;;;2.66;85.42
21838;BME280;11081;45.946;6.140;2024-01-11T11:12:12;95711.94;;;2.78;85.25
21838;BME280;11081;45.946;6.140;2024-01-11T11:14:41;95703.19;;;2.63;84.95
21838;BME280;11081;45.946;6.140;2024-01-11T11:17:14;95705.13;;;2.61;84.35
21838;BME280;11081;45.946;6.140;2024-01-11T11:19:42;95707.69;;;2.53;85.50
21838;BME280;11081;45.946;6.140;2024-01-11T11:22:12;95711.22;;;2.52;85.26
21838;BME280;11081;45.946;6.140;2024-01-11T11:24:41;95711.88;;;2.62;85.14
21838;BME280;11081;45.946;6.140;2024-01-11T11:27:13;95718.38;;;2.82;84.72
21838;BME280;11081;45.946;6.140;2024-01-11T11:29:41;95707.78;;;2.93;83.46
21838;BME280;11081;45.946;6.140;2024-01-11T11:32:11;95711.66;;;2.97;82.85
21838;BME280;11081;45.946;6.140;2024-01-11T11:34:40;95704.84;;;2.80;83.76
21838;BME280;11081;45.946;6.140;2024-01-11T11:37:09;95700.34;;;2.90;83.77
21838;BME280;11081;45.946;6.140;2024-01-11T11:39:37;95702.63;;;3.01;83.48
21838;BME280;11081;45.946;6.140;2024-01-11T11:42:05;95698.75;;;2.97;82.85
21838;BME280;11081;45.946;6.140;2024-01-11T11:44:34;95701.63;;;2.78;84.27
21838;BME280;11081;45.946;6.140;2024-01-11T11:47:22;95696.47;;;2.78;83.99
21838;BME280;11081;45.946;6.140;2024-01-11T11:49:58;95700.50;;;2.81;83.53
21838;BME280;11081;45.946;6.140;2024-01-11T11:52:32;95701.66;;;2.94;83.78
21838;BME280;11081;45.946;6.140;2024-01-11T11:55:01;95697.13;;;3.04;83.50
21838;BME280;11081;45.946;6.140;2024-01-11T11:57:30;95697.81;;;3.15;82.77
21838;BME280;11081;45.946;6.140;2024-01-11T11:59:59;95702.94;;;3.06;83.13
21838;BME280;11081;45.946;6.140;2024-01-11T12:02:38;95690.84;;;2.91;82.76
21838;BME280;11081;45.946;6.140;2024-01-11T12:05:07;95691.66;;;2.99;83.47
21838;BME280;11081;45.946;6.140;2024-01-11T12:07:35;95685.22;;;3.03;83.13
21838;BME280;11081;45.946;6.140;2024-01-11T12:10:04;95687.47;;;2.98;83.63
21838;BME280;11081;45.946;6.140;2024-01-11T12:12:34;95687.63;;;3.05;83.71
21838;BME280;11081;45.946;6.140;2024-01-11T12:15:03;95698.78;;;3.14;83.72
21838;BME280;11081;45.946;6.140;2024-01-11T12:17:31;95684.28;;;3.13;83.50
21838;BME280;11081;45.946;6.140;2024-01-11T12:20:01;95692.31;;;3.10;83.86
21838;BME280;11081;45.946;6.140;2024-01-11T12:22:30;95688.44;;;2.97;83.64
21838;BME280;11081;45.946;6.140;2024-01-11T12:24:58;95692.94;;;3.03;83.05
21838;BME280;11081;45.946;6.140;2024-01-11T12:27:26;95682.31;;;2.98;83.61
21838;BME280;11081;45.946;6.140;2024-01-11T12:29:54;95691.03;;;2.97;83.67
21838;BME280;11081;45.946;6.140;2024-01-11T12:32:26;95684.25;;;2.96;84.49
21838;BME280;11081;45.946;6.140;2024-01-11T12:34:54;95684.25;;;3.04;83.94
21838;BME280;11081;45.946;6.140;2024-01-11T12:37:24;95682.28;;;2.82;84.32
21838;BME280;11081;45.946;6.140;2024-01-11T12:39:57;95681.31;;;2.91;84.73
21838;BME280;11081;45.946;6.140;2024-01-11T12:42:25;95682.66;;;2.95;84.70
21838;BME280;11081;45.946;6.140;2024-01-11T12:44:54;95687.16;;;3.01;84.63
21838;BME280;11081;45.946;6.140;2024-01-11T12:47:25;95688.06;;;2.68;84.87
21838;BME280;11081;45.946;6.140;2024-01-11T12:49:54;95683.25;;;2.73;85.59
21838;BME280;11081;45.946;6.140;2024-01-11T12:52:23;95677.63;;;2.86;84.80
21838;BME280;11081;45.946;6.140;2024-01-11T12:54:55;95680.38;;;3.00;84.65
21838;BME280;11081;45.946;6.140;2024-01-11T12:57:24;95682.31;;;2.98;84.51
21838;BME280;11081;45.946;6.140;2024-01-11T12:59:53;95682.94;;;3.09;84.25
21838;BME280;11081;45.946;6.140;2024-01-11T13:02:21;95679.09;;;2.96;83.80
21838;BME280;11081;45.946;6.140;2024-01-11T13:04:50;95682.00;;;2.93;83.85
21838;BME280;11081;45.946;6.140;2024-01-11T13:07:19;95683.59;;;3.02;84.16
21838;BME280;11081;45.946;6.140;2024-01-11T13:09:51;95674.25;;;3.01;83.46
21838;BME280;11081;45.946;6.140;2024-01-11T13:12:19;95671.84;;;3.00;83.67
21838;BME280;11081;45.946;6.140;2024-01-11T13:14:48;95672.03;;;3.15;83.05
21838;BME280;11081;45.946;6.140;2024-01-11T13:17:17;95670.41;;;3.14;83.63
21838;BME280;11081;45.946;6.140;2024-01-11T13:19:45;95669.28;;;3.16;82.74